Wetterdaten: aktuell Sonntag, 19.05.2019 19:00
Datum Zeit Temp. I. Temp. A. Feuchte I. Feuchte A. Luftdruck Regen Wind Richtung Richtung Taupunkt Windchill
19.05.2019 19:00 23,4 C 18,8 C 34 % 72 % 1001 hPa 0,0 mm 6,8 km/h (2 Bft) W-NW45 290 13,6 C 18,8 C
19.05.2019 18:00 22,9 C 16,4 C 34 % 74 % 1002 hPa 1,0 mm 0,0 km/h (0 Bft) W 270 11,8 C 16,4 C
19.05.2019 17:00 22,8 C 16,8 C 34 % 68 % 1004 hPa 1,0 mm 12,6 km/h (3 Bft) S-SO45 155 10,9 C 16,8 C
19.05.2019 16:00 22,8 C 23,8 C 34 % 48 % 1002 hPa 0,0 mm 0,0 km/h (0 Bft) S-SO45 155 12,1 C 23,8 C
19.05.2019 15:00 22,8 C 23,3 C 34 % 49 % 1002 hPa 0,0 mm 0,0 km/h (0 Bft) NO 45 12,0 C 23,3 C
19.05.2019 14:00 22,8 C 23,2 C 34 % 51 % 1002 hPa 0,0 mm 0,0 km/h (0 Bft) O-SO45 110 12,5 C 23,2 C
19.05.2019 13:00 22,8 C 22,1 C 34 % 54 % 1002 hPa 0,0 mm 0,0 km/h (0 Bft) O-NO45 65 12,3 C 22,1 C
19.05.2019 12:00 22,7 C 20,5 C 33 % 57 % 1003 hPa 0,0 mm 4,7 km/h (1 Bft) NO 45 11,7 C 20,5 C
19.05.2019 11:00 22,7 C 19,8 C 34 % 61 % 1003 hPa 0,0 mm 0,0 km/h (0 Bft) O-NO45 65 12,1 C 19,8 C
19.05.2019 10:00 22,4 C 18,3 C 34 % 66 % 1003 hPa 0,0 mm 0,0 km/h (0 Bft) NO 45 11,8 C 18,3 C
19.05.2019 09:00 22,0 C 16,1 C 35 % 75 % 1003 hPa 0,0 mm 0,0 km/h (0 Bft) O-NO45 65 11,7 C 16,1 C
19.05.2019 08:00 21,7 C 13,3 C 35 % 81 % 1003 hPa 0,0 mm 0,0 km/h (0 Bft) O-SO45 110 10,1 C 13,3 C
19.05.2019 07:00 21,8 C 11,9 C 34 % 81 % 1003 hPa 0,0 mm 0,0 km/h (0 Bft) O-SO45 110 8,7 C 11,9 C
19.05.2019 06:00 21,9 C 11,6 C 34 % 80 % 1003 hPa 0,0 mm 0,0 km/h (0 Bft) SW 225 8,3 C 11,6 C
19.05.2019 05:00 21,9 C 12,2 C 34 % 78 % 1003 hPa 0,0 mm 0,0 km/h (0 Bft) NW 315 8,5 C 12,2 C
19.05.2019 04:00 21,9 C 12,8 C 34 % 78 % 1003 hPa 0,0 mm 0,0 km/h (0 Bft) NW 315 9,1 C 12,8 C
19.05.2019 03:00 22,0 C 13,1 C 33 % 76 % 1004 hPa 0,0 mm 0,0 km/h (0 Bft) S-SW45 200 9,0 C 13,1 C
19.05.2019 02:00 22,0 C 14,1 C 33 % 72 % 1004 hPa 0,0 mm 0,0 km/h (0 Bft) NO 45 9,1 C 14,1 C
19.05.2019 01:00 22,0 C 14,9 C 33 % 68 % 1004 hPa 0,0 mm 0,0 km/h (0 Bft) NO 45 9,0 C 14,9 C
18.05.2019 21:00 22,2 C 17,9 C 31 % 61 % 1004 hPa 0,0 mm 6,8 km/h (2 Bft) NW 315 10,3 C 17,9 C
18.05.2019 20:00 22,2 C 19,5 C 30 % 56 % 1004 hPa 0,0 mm 7,2 km/h (2 Bft) W-SW45 245 10,5 C 19,5 C
_ Min-Zeit 08:00 06:00 20:00 16:00 19:00 - 01:00 - - 06:00 06:00
Minimum _ 21,7 C 11,6 C 30 % 48 % 1001 hPa - 0,0 km/h (0 Bft) - - 8,3 C 11,6 C
_ Max-Zeit 19:00 16:00 08:00 07:00 20:00 17:00 17:00 - - 19:00 16:00
Maximum _ 23,4 C 23,8 C 35 % 81 % 1004 hPa 1,0 mm 12,6 km/h
S-SO (3 Bft)
- - 13,6 C 23,8 C
Durchschnitt _ 22,3 C 17,2 C 33 % 67 % 1003 hPa #2,1 mm 2,0 km/h (1 Bft) NO - 10,6 C 17,2 C